Elkhorn, Wisconsin
Current Conditions -  °F | °C
As of 8:35 AM on Thursday 30 Oct 2014 (Local Time) from KBUU Reporting Station
Clear Clear  
Wind Chill: 32°   Ceiling: Unl
Heat Index: 32°   Visibility: 10mi
Dew Point: 32°   Wind: 3mph
Humidity: 99%   Direction: 210°SSW
Pressure: 30.12"   Gusts: NA
Location:  42.67°N, 88.54°W
Report Text: KBUU 301335Z AUTO 21003KT 10SM CLR 00/00 A3012 RMK AO2 T00010000
Loading
Personal Weather Stations






























Interactive Weather Map
Tropical Storm Tracking
New forecast layout! Learn more

10-Day Weather Forecast

Advertisements
Track Severe Weather on mobile